Portada
METAR-TAF:

METAR-TAF

Aeropuertos :

Aeropuerto de Abadán

Abadán, Irán

latitud: 30-22N, longitud: 048-15E, altitud: 3 m

Observación

El informe se hizo hace 57 minutos, a las 03:00 UTC
Viento 2 kt del oeste
Temperatura 30°C
Humedad 46%
Presión 1002 hPa
Visibilidad 10 km o más
sin nubes por debajo de 1500 m y sin presencia de cumulonimbus.

METAR: OIAA 250300Z 27002KT CAVOK 30/17 Q1002

Hora: 08:27 (03:57 UTC)

Pronóstico

El informe se hizo hace 4 horas y 27 minutos, a las 23:30 UTC
Pronóstico válido del 25 a las 00 UTC al 26 a las 06 UTC
Viento 8 kt del norte-noroeste
Visibilidad: 7000 m
Evolucionando progresivamente
del 25 a las 10 UTC al 25 a las 12 UTC
Visibilidad: 4000 m
Polvo extendido
Temporalmente
del 25 a las 12 UTC al 25 a las 20 UTC
Visibilidad: 2000 m
Polvo extendido

TAF: OIAA 242330Z 2500/2606 33008KT 7000 NSC BECMG 2510/2512 4000 DU TEMPO 2512/2520 2000 DU

Observaciones y pronósticos meteorológicos de más de 4000 aeropuertos (mensajes METAR y TAF).

Los puntos amarillos y rojos representan las estaciones disponibles.

Ponga el ratón en el punto deseado para ver el nombre de la estación.

Haga clic para ver las observaciones y los pronósticos meteorológicos.

Para cambiar el mapa : haga clic en los botones verdes con una cruz de color negro para hacer un zoom, en el botón verde con un guión para alejar o en las flechas verdes para mapas adyacentes.


METAR-TAF: